Airfield :
LOGIN :

Register | Disclaimer

   EN    FR    IT 

 










Legend :    VFR   Marginal VFR   IFR   Intensive IFR   Very Intensive IFR
Visi :
Ceiling :
>= 8 km
>= 3000ft
5 to 8 km
1000 to 3000 ft
1500m to 5 km
500 to 1000 ft
800 to 1500m
200 to 500 ft
< 800m
< 200 ft
Symbols :   Thunderstorms  Fog  Heavy snow  Heavy precipitations  Wind > 20 kt
SIGMETs :     Misc.  Thunderstorms  Icing  Turbulence  Mountain Waves  Volcanic Ashes






- Airport Elevation : 416 ft
- IATA code : OVD


LEAS - Asturias

CURRENT METAR :
  • 250300Z AUTO VRB02KT 9999 FEW023 13/13 Q1023

EXPIRED METARs :
  • 250230Z AUTO 13003KT 090V160 9999 FEW022 14/13 Q1023
  • 250200Z AUTO VRB02KT CAVOK 13/12 Q1024
  • 250130Z 14004KT 9999 FEW025 14/13 Q1024 NOSIG
  • 250100Z 12003KT 070V160 9999 FEW025 13/12 Q1024 NOSIG
  • 250030Z VRB02KT 9999 FEW025 13/12 Q1024 NOSIG

TAF TAF LEAS
Valid from the 25 at 03:00 until the 26 at 03:00 UTC


250200Z 2503/2603 13006KT 9999 FEW025 TX19/2512Z TN12/2504Z
PROB40
TEMPO 2503/2507 3000 BR BKN010
BECMG 2509/2512 07010KT
BECMG 2518/2522 13005KT



MET'MAP, your aeronautical weather chart ! - Copyright ORBIFLY December 2007 - Disclaimer

ORBIFLY MET'MAP TEAM :

Programming & Development : Alexandra Zaïnal
Concept & original design : Baudouin d'Aumeries
Assistance for programming : Marc-Olivier Méhu
Technical & hardware support : Manuel Goepfert

Contact : metmap@orbifly.com




SOURCES & CREDITS :

   NOAA